Time;durP1;ratioP1;P1;durP2;ratioP2;P2;SDS_P1;SDS_P2;PMS_P1;PMS_P2;Temp;Humidity;BMP_temperature;BMP_pressure;BME280_temperature;BME280_humidity;BME280_pressure;Samples;Min_cycle;Max_cycle;Signal;HPM_P1;HPM_P2
2023/12/10 00:00:15;;;;;;;;;7.75;6.25;;;;;8.51;91.79;99490.00;5107934;28;10148;-68
2023/12/10 00:02:42;;;;;;;;;5.00;2.00;;;;;8.53;91.87;99499.44;5095221;28;10214;-68
2023/12/10 00:05:08;;;;;;;;;6.75;5.50;;;;;8.50;91.89;99499.06;5081142;28;10871;-68
2023/12/10 00:07:35;;;;;;;;;6.25;2.50;;;;;8.46;92.43;99498.66;5088087;28;10451;-70
2023/12/10 00:10:02;;;;;;;;;4.25;2.00;;;;;8.51;92.82;99503.41;5068677;28;10257;-70
2023/12/10 00:12:28;;;;;;;;;5.00;3.00;;;;;8.51;92.87;99504.22;5086643;28;10370;-69
2023/12/10 00:14:55;;;;;;;;;6.75;5.75;;;;;8.49;93.33;99494.72;5107525;28;11040;-70
2023/12/10 00:17:22;;;;;;;;;4.50;2.25;;;;;8.45;93.77;99504.25;5106618;28;10823;-70
2023/12/10 00:19:48;;;;;;;;;7.00;2.00;;;;;8.38;94.28;99502.41;5094948;28;10342;-68
2023/12/10 00:22:15;;;;;;;;;3.00;2.00;;;;;8.34;94.73;99493.09;5101791;28;10232;-71
2023/12/10 00:24:42;;;;;;;;;4.75;3.25;;;;;8.26;94.81;99496.03;5072429;28;10143;-71
2023/12/10 00:27:09;;;;;;;;;6.25;4.00;;;;;8.29;95.09;99505.50;5086200;28;10418;-70
2023/12/10 00:29:36;;;;;;;;;5.00;2.00;;;;;8.30;95.00;99502.59;5087070;28;10253;-70
2023/12/10 00:32:03;;;;;;;;;8.00;2.25;;;;;8.28;95.07;99498.50;5089906;28;10299;-70
2023/12/10 00:34:29;;;;;;;;;10.50;5.25;;;;;8.23;95.54;99504.50;5107187;28;10215;-70
2023/12/10 00:36:56;;;;;;;;;5.50;5.50;;;;;8.21;95.86;99516.47;5090616;28;10318;-69
2023/12/10 00:39:22;;;;;;;;;6.75;2.50;;;;;8.12;96.41;99516.69;5079311;28;10433;-70
2023/12/10 00:41:49;;;;;;;;;3.50;3.50;;;;;8.19;96.13;99516.69;5084058;28;10201;-70
2023/12/10 00:44:15;;;;;;;;;6.50;6.00;;;;;8.17;96.32;99513.38;5106349;28;11046;-70
2023/12/10 00:46:42;;;;;;;;;8.00;3.50;;;;;8.16;95.96;99493.78;5105244;28;10483;-70
2023/12/10 00:49:09;;;;;;;;;4.50;4.50;;;;;8.24;95.83;99518.72;5084896;28;10446;-68
2023/12/10 00:51:36;;;;;;;;;3.00;3.00;;;;;8.23;96.05;99501.81;5091260;28;10394;-69
2023/12/10 00:54:05;;;;;;;;;4.00;2.00;;;;;8.23;95.54;99515.22;5107447;28;10308;-70
2023/12/10 00:56:32;;;;;;;;;1.25;1.25;;;;;8.23;95.41;99519.78;5082910;28;10290;-70
2023/12/10 00:58:58;;;;;;;;;3.25;3.25;;;;;8.21;96.06;99506.56;5097589;28;10306;-68
2023/12/10 01:01:25;;;;;;;;;9.75;1.50;;;;;8.16;96.05;99509.88;5101136;28;10312;-70
2023/12/10 01:03:52;;;;;;;;;5.75;4.00;;;;;8.16;95.74;99520.59;5107948;28;10279;-70
2023/12/10 01:06:19;;;;;;;;;7.00;4.75;;;;;8.13;96.00;99517.53;5091351;28;10299;-68
2023/12/10 01:08:45;;;;;;;;;2.00;2.00;;;;;8.14;95.58;99519.16;5091318;28;10230;-70
2023/12/10 01:11:12;;;;;;;;;4.50;3.00;;;;;8.14;95.50;99528.03;5108113;28;10188;-70
2023/12/10 01:13:38;;;;;;;;;6.75;1.75;;;;;8.14;94.69;99514.66;5086930;28;10215;-71
2023/12/10 01:16:05;;;;;;;;;5.50;3.00;;;;;8.17;94.38;99521.41;5084119;28;10389;-68
2023/12/10 01:18:37;;;;;;;;;5.00;2.50;;;;;8.20;94.63;99512.97;5078063;28;10245;-69
2023/12/10 01:21:05;;;;;;;;;8.00;5.00;;;;;8.16;94.01;99525.16;5091844;28;11081;-71
2023/12/10 01:23:31;;;;;;;;;6.50;3.50;;;;;8.14;94.40;99528.03;5096108;28;10206;-70
2023/12/10 01:25:58;;;;;;;;;6.00;6.00;;;;;8.15;93.74;99536.91;5101601;28;10218;-71
2023/12/10 01:28:24;;;;;;;;;5.50;4.00;;;;;8.22;93.16;99532.31;5088938;28;10296;-70
2023/12/10 01:30:51;;;;;;;;;3.50;3.00;;;;;8.19;93.37;99543.50;5104288;28;10287;-70
2023/12/10 01:33:17;;;;;;;;;6.25;3.50;;;;;8.23;92.65;99533.19;5079702;28;10259;-69
2023/12/10 01:35:44;;;;;;;;;6.50;5.75;;;;;8.24;92.92;99546.34;5085231;28;10212;-70
2023/12/10 01:38:11;;;;;;;;;5.50;2.75;;;;;8.21;93.03;99557.50;5089800;28;10197;-70
2023/12/10 01:40:37;;;;;;;;;2.25;2.25;;;;;8.28;93.05;99544.91;5103741;28;10437;-70
2023/12/10 01:43:08;;;;;;;;;6.00;2.25;;;;;8.23;93.59;99547.41;5097881;28;10223;-69
2023/12/10 01:45:35;;;;;;;;;3.00;3.00;;;;;8.21;94.29;99541.41;5105407;28;10180;-69
2023/12/10 01:48:04;;;;;;;;;2.00;2.00;;;;;8.21;94.82;99544.09;5096235;28;10358;-71
2023/12/10 01:50:34;;;;;;;;;6.75;6.00;;;;;8.23;93.73;99571.53;5101996;28;10401;-70
2023/12/10 01:53:02;;;;;;;;;2.50;2.00;;;;;8.20;94.39;99574.63;5109721;28;10307;-71
2023/12/10 01:55:29;;;;;;;;;1.00;1.00;;;;;8.17;94.55;99575.03;5111070;28;10204;-70
2023/12/10 01:57:55;;;;;;;;;5.50;3.50;;;;;8.20;95.22;99577.28;5077727;28;10333;-71
2023/12/10 02:00:22;;;;;;;;;7.75;2.00;;;;;8.15;96.06;99580.63;5093388;28;10606;-70
2023/12/10 02:02:49;;;;;;;;;8.50;2.25;;;;;8.12;96.28;99591.75;5103991;28;10510;-70
2023/12/10 02:05:19;;;;;;;;;2.50;2.00;;;;;8.17;96.34;99593.78;5090940;28;10196;-69
2023/12/10 02:07:46;;;;;;;;;11.50;5.75;;;;;8.14;96.60;99581.66;5112762;28;10210;-70
2023/12/10 02:10:12;;;;;;;;;9.50;2.75;;;;;8.13;97.28;99597.94;5113715;28;10360;-71
2023/12/10 02:12:39;;;;;;;;;4.50;2.50;;;;;8.13;97.58;99593.38;5113162;28;10254;-69
2023/12/10 02:15:15;;;;;;;;;5.25;2.50;;;;;8.14;97.66;99594.19;5099403;28;10428;-71
2023/12/10 02:17:42;;;;;;;;;3.75;2.00;;;;;8.14;98.04;99610.28;5081170;28;10207;-70
2023/12/10 02:20:11;;;;;;;;;5.75;5.75;;;;;8.16;98.31;99594.84;5081690;28;10270;-66
2023/12/10 02:22:46;;;;;;;;;5.75;3.50;;;;;8.18;98.11;99595.44;5082581;28;10531;-67
2023/12/10 02:25:15;;;;;;;;;2.00;2.00;;;;;8.13;98.38;99598.75;5090898;28;10246;-70
2023/12/10 02:27:41;;;;;;;;;2.75;2.75;;;;;8.15;98.51;99601.25;5074473;28;10427;-70
2023/12/10 02:30:09;;;;;;;;;4.25;2.75;;;;;8.14;98.56;99597.72;5103366;28;10274;-70
2023/12/10 02:32:36;;;;;;;;;6.25;4.50;;;;;8.08;98.93;99608.44;5111241;28;10329;-71
2023/12/10 02:35:02;;;;;;;;;6.25;5.75;;;;;8.06;99.48;99610.50;5084682;28;11277;-71
2023/12/10 02:37:29;;;;;;;;;2.50;2.50;;;;;8.05;99.42;99606.19;5096686;28;10344;-71
2023/12/10 02:39:56;;;;;;;;;6.00;3.00;;;;;8.07;99.39;99626.41;5105365;28;10522;-70
2023/12/10 02:42:22;;;;;;;;;10.25;5.50;;;;;8.03;99.91;99616.31;5094900;28;11067;-69
2023/12/10 02:44:48;;;;;;;;;3.00;2.75;;;;;8.07;100.00;99626.41;5106642;28;10424;-70
2023/12/10 02:47:15;;;;;;;;;6.00;5.00;;;;;8.06;100.00;99614.03;5071845;28;10791;-69
2023/12/10 02:49:41;;;;;;;;;8.25;3.00;;;;;8.09;100.00;99618.13;5088569;28;10447;-69
2023/12/10 02:52:08;;;;;;;;;6.00;6.00;;;;;8.04;100.00;99625.97;5108522;28;10452;-70
2023/12/10 02:54:35;;;;;;;;;5.75;5.50;;;;;7.99;100.00;99607.84;5094411;28;10392;-70
2023/12/10 02:57:01;;;;;;;;;6.50;4.50;;;;;7.99;100.00;99615.88;5094739;28;10349;-70
2023/12/10 02:59:28;;;;;;;;;11.00;6.50;;;;;7.96;100.00;99613.63;5097864;28;10452;-68
2023/12/10 03:01:54;;;;;;;;;6.25;4.50;;;;;7.96;100.00;99635.06;5094443;28;10691;-70
2023/12/10 03:04:20;;;;;;;;;6.50;2.75;;;;;7.93;100.00;99624.75;5109487;28;10444;-69
2023/12/10 03:06:47;;;;;;;;;4.00;4.00;;;;;7.96;100.00;99639.59;5081375;28;10489;-71
2023/12/10 03:09:14;;;;;;;;;6.25;5.00;;;;;7.91;100.00;99643.72;5104657;28;10342;-71
2023/12/10 03:11:40;;;;;;;;;5.75;5.00;;;;;7.89;100.00;99640.41;5105052;28;10349;-70
2023/12/10 03:14:07;;;;;;;;;5.50;2.50;;;;;7.93;100.00;99630.91;5105647;28;10451;-70
2023/12/10 03:16:35;;;;;;;;;4.50;4.50;;;;;7.93;100.00;99608.66;5106209;28;10412;-70
2023/12/10 03:19:02;;;;;;;;;3.50;3.00;;;;;7.95;100.00;99649.50;5105577;28;10536;-70
2023/12/10 03:21:28;;;;;;;;;5.00;3.00;;;;;7.99;100.00;99644.53;5094869;28;10295;-70
2023/12/10 03:23:55;;;;;;;;;6.00;4.50;;;;;7.94;100.00;99639.81;5097723;28;10397;-70
2023/12/10 03:26:21;;;;;;;;;10.00;3.50;;;;;7.99;100.00;99649.91;5086858;28;10504;-70
2023/12/10 03:28:48;;;;;;;;;8.75;6.00;;;;;7.98;100.00;99653.59;5090700;28;10973;-70
2023/12/10 03:31:14;;;;;;;;;7.00;3.00;;;;;7.99;100.00;99660.63;5090567;28;10596;-70
2023/12/10 03:33:41;;;;;;;;;7.00;5.00;;;;;7.98;100.00;99653.59;5094154;28;10343;-70
2023/12/10 03:36:08;;;;;;;;;6.00;3.00;;;;;7.93;100.00;99660.41;5108931;28;10387;-69
2023/12/10 03:38:34;;;;;;;;;9.25;3.50;;;;;7.97;100.00;99666.16;5083628;28;10402;-70
2023/12/10 03:41:02;;;;;;;;;11.25;8.50;;;;;8.01;100.00;99662.06;5112617;28;10568;-70
2023/12/10 03:43:29;;;;;;;;;9.75;8.00;;;;;8.02;100.00;99668.22;5109975;28;10607;-70
2023/12/10 03:45:55;;;;;;;;;5.75;5.00;;;;;7.95;100.00;99665.56;5096133;28;10397;-69
2023/12/10 03:48:22;;;;;;;;;10.75;7.50;;;;;7.98;99.68;99685.75;5105857;28;10509;-68
2023/12/10 03:50:49;;;;;;;;;5.25;3.50;;;;;7.99;99.67;99668.66;5092419;28;11343;-71
2023/12/10 03:53:15;;;;;;;;;6.50;4.00;;;;;7.94;99.99;99671.97;5098597;28;10662;-68
2023/12/10 03:55:42;;;;;;;;;8.25;5.75;;;;;7.95;99.34;99687.00;5101968;28;10529;-70
2023/12/10 03:58:08;;;;;;;;;5.75;4.50;;;;;7.98;99.22;99683.91;5102213;28;10344;-70
2023/12/10 04:00:35;;;;;;;;;9.50;5.50;;;;;7.96;99.60;99693.19;5100980;28;10611;-70
2023/12/10 04:03:01;;;;;;;;;6.00;4.50;;;;;7.97;99.25;99711.72;5106313;28;10435;-70
2023/12/10 04:05:28;;;;;;;;;2.25;2.25;;;;;7.97;99.47;99701.00;5083916;28;11230;-69
2023/12/10 04:07:54;;;;;;;;;10.50;6.75;;;;;7.91;100.00;99725.97;5112077;28;10665;-71
2023/12/10 04:10:21;;;;;;;;;6.75;4.50;;;;;7.85;100.00;99713.38;5088493;28;10522;-70
2023/12/10 04:12:47;;;;;;;;;7.00;4.00;;;;;7.85;100.00;99722.22;5110615;28;10375;-71
2023/12/10 04:15:14;;;;;;;;;7.00;5.50;;;;;7.91;99.88;99721.41;5111786;28;10361;-69
2023/12/10 04:17:42;;;;;;;;;6.25;6.25;;;;;7.94;100.00;99744.31;5110415;28;10374;-70
2023/12/10 04:20:09;;;;;;;;;6.00;3.50;;;;;7.99;99.76;99741.84;5107609;28;11167;-70
2023/12/10 04:22:35;;;;;;;;;3.00;3.00;;;;;7.96;99.65;99746.78;5079196;28;10404;-70
2023/12/10 04:25:02;;;;;;;;;6.50;6.25;;;;;7.94;99.78;99736.28;5111692;28;10528;-69
2023/12/10 04:27:28;;;;;;;;;6.00;4.75;;;;;7.92;99.79;99741.81;5111601;28;10514;-70
2023/12/10 04:29:55;;;;;;;;;2.75;2.00;;;;;7.99;99.25;99751.72;5111266;28;10521;-70
2023/12/10 04:32:24;;;;;;;;;10.75;6.25;;;;;7.99;99.57;99759.78;5094753;28;10285;-70
2023/12/10 04:34:51;;;;;;;;;12.25;6.00;;;;;8.04;99.20;99776.06;5101541;28;10467;-70
2023/12/10 04:37:18;;;;;;;;;5.50;5.50;;;;;8.04;98.92;99776.88;5107156;28;10475;-70
2023/12/10 04:39:45;;;;;;;;;5.25;5.00;;;;;8.04;98.93;99792.16;5095988;28;10359;-68
2023/12/10 04:42:11;;;;;;;;;5.50;3.00;;;;;8.04;98.35;99776.88;5086052;28;10446;-70
2023/12/10 04:44:38;;;;;;;;;7.25;6.50;;;;;8.10;98.03;99783.28;5100755;28;10356;-69
2023/12/10 04:47:04;;;;;;;;;9.50;6.00;;;;;8.08;98.34;99793.38;5099680;28;10488;-70
2023/12/10 04:49:31;;;;;;;;;5.50;3.50;;;;;8.06;98.00;99795.44;5087738;28;10376;-70
2023/12/10 04:51:58;;;;;;;;;2.00;1.75;;;;;8.05;97.82;99794.59;5092944;28;10276;-69
2023/12/10 04:54:27;;;;;;;;;11.00;4.50;;;;;8.02;97.32;99810.25;5095713;28;10452;-68
2023/12/10 04:56:53;;;;;;;;;5.25;4.00;;;;;8.09;96.79;99811.94;5096350;28;11088;-70
2023/12/10 04:59:20;;;;;;;;;9.50;5.25;;;;;8.12;96.58;99829.47;5106933;28;10267;-70
2023/12/10 05:01:46;;;;;;;;;5.50;4.50;;;;;8.07;96.91;99834.63;5111135;28;10359;-70
2023/12/10 05:04:13;;;;;;;;;7.50;3.50;;;;;8.15;96.36;99834.44;5087540;28;10273;-70
2023/12/10 05:06:40;;;;;;;;;14.75;5.00;;;;;8.19;95.34;99835.69;5090720;28;10991;-70
2023/12/10 05:09:09;;;;;;;;;5.00;5.00;;;;;8.20;95.76;99831.97;5090434;28;10468;-70
2023/12/10 05:11:36;;;;;;;;;4.00;2.25;;;;;8.26;94.97;99839.19;5100182;28;10327;-69
2023/12/10 05:14:02;;;;;;;;;3.50;2.50;;;;;8.27;94.50;99856.94;5100174;28;10391;-70
2023/12/10 05:16:29;;;;;;;;;5.00;3.00;;;;;8.31;94.26;99860.88;5096117;28;10377;-71
2023/12/10 05:18:55;;;;;;;;;5.75;2.00;;;;;8.32;94.40;99875.09;5107877;28;10307;-67
2023/12/10 05:21:22;;;;;;;;;8.00;5.25;;;;;8.32;93.96;99862.50;5086896;28;10283;-70
2023/12/10 05:23:49;;;;;;;;;5.25;1.75;;;;;8.33;93.96;99880.25;5100088;28;10227;-70
2023/12/10 05:26:16;;;;;;;;;4.50;3.00;;;;;8.34;93.67;99863.13;5081872;28;10255;-70
2023/12/10 05:28:42;;;;;;;;;4.75;3.50;;;;;8.32;93.32;99878.59;5097650;28;10412;-70
2023/12/10 05:31:10;;;;;;;;;9.50;7.00;;;;;8.32;93.40;99889.31;5082942;28;10275;-68
2023/12/10 05:33:36;;;;;;;;;6.25;5.00;;;;;8.35;92.80;99886.25;5087531;28;10525;-70
2023/12/10 05:36:03;;;;;;;;;5.00;3.00;;;;;8.45;92.80;99887.72;5107624;28;10216;-67
2023/12/10 05:38:29;;;;;;;;;8.25;4.25;;;;;8.37;92.61;99891.41;5083567;28;10194;-70
2023/12/10 05:40:56;;;;;;;;;8.75;6.75;;;;;8.32;92.53;99915.31;5097114;28;10452;-69
2023/12/10 05:43:22;;;;;;;;;6.25;3.50;;;;;8.35;92.14;99931.81;5109139;28;10420;-69
2023/12/10 05:45:49;;;;;;;;;6.50;2.25;;;;;8.33;91.97;99923.16;5109257;28;10341;-70
2023/12/10 05:48:15;;;;;;;;;4.25;4.25;;;;;8.39;91.47;99925.06;5094290;28;10349;-70
2023/12/10 05:50:42;;;;;;;;;3.00;3.00;;;;;8.38;91.21;99944.84;5090511;28;10681;-70
2023/12/10 05:53:08;;;;;;;;;5.00;3.00;;;;;8.45;90.90;99944.88;5088704;28;10361;-69
2023/12/10 05:55:35;;;;;;;;;7.50;5.75;;;;;8.49;90.24;99953.34;5094950;28;10468;-70
2023/12/10 05:58:01;;;;;;;;;6.75;6.25;;;;;8.51;90.56;99968.22;5099261;28;10299;-69
2023/12/10 06:00:28;;;;;;;;;10.00;5.00;;;;;8.50;90.34;99979.94;5090495;28;10329;-70
2023/12/10 06:02:54;;;;;;;;;4.25;2.25;;;;;8.47;90.46;99987.56;5110511;28;10253;-70
2023/12/10 06:05:21;;;;;;;;;4.00;3.00;;;;;8.39;90.62;99984.06;5084465;28;10236;-69
2023/12/10 06:07:47;;;;;;;;;7.75;6.25;;;;;8.48;90.24;99998.13;5105678;28;10292;-69
2023/12/10 06:10:14;;;;;;;;;8.00;3.50;;;;;8.44;90.40;99985.31;5108153;28;10294;-70
2023/12/10 06:12:41;;;;;;;;;8.00;5.50;;;;;8.41;89.88;100005.31;5104132;28;11012;-70
2023/12/10 06:15:08;;;;;;;;;5.25;2.50;;;;;8.50;88.99;100014.00;5085454;28;11019;-70
2023/12/10 06:17:34;;;;;;;;;5.75;4.75;;;;;8.51;88.68;100019.19;5072130;28;10194;-70
2023/12/10 06:20:01;;;;;;;;;7.25;6.25;;;;;8.47;89.12;100025.13;5079516;28;10390;-70
2023/12/10 06:22:27;;;;;;;;;5.75;5.00;;;;;8.44;89.09;100039.78;5095185;28;10433;-69
2023/12/10 06:24:54;;;;;;;;;7.25;5.75;;;;;8.43;89.12;100027.41;5108206;28;10367;-70
2023/12/10 06:27:20;;;;;;;;;1.25;1.25;;;;;8.46;88.50;100026.97;5092243;28;10545;-70
2023/12/10 06:29:47;;;;;;;;;5.50;5.25;;;;;8.44;88.56;100039.78;5102654;28;10359;-70
2023/12/10 06:32:14;;;;;;;;;4.00;3.00;;;;;8.42;88.22;100041.81;5098941;28;10557;-69
2023/12/10 06:34:40;;;;;;;;;6.50;2.00;;;;;8.46;88.28;100055.66;5098346;28;10206;-70
2023/12/10 06:37:07;;;;;;;;;2.00;1.50;;;;;8.54;87.76;100058.16;5109852;28;10230;-70
2023/12/10 06:39:33;;;;;;;;;4.50;2.00;;;;;8.46;87.57;100063.69;5056140;28;10340;-70
2023/12/10 06:42:00;;;;;;;;;9.00;5.25;;;;;8.40;87.80;100070.69;5109407;28;10328;-70
2023/12/10 06:44:27;;;;;;;;;3.25;3.25;;;;;8.38;87.62;100062.84;5103333;28;10543;-70
2023/12/10 06:46:53;;;;;;;;;6.00;5.00;;;;;8.42;87.11;100063.25;5106944;28;10353;-69
2023/12/10 06:49:20;;;;;;;;;2.00;2.00;;;;;8.47;87.09;100076.06;5096371;28;10441;-68
2023/12/10 06:51:46;;;;;;;;;3.00;3.00;;;;;8.50;86.89;100089.91;5113558;28;10287;-69
2023/12/10 06:54:13;;;;;;;;;6.00;4.50;;;;;8.47;87.28;100079.63;5104739;28;10376;-69
2023/12/10 06:56:40;;;;;;;;;5.50;5.25;;;;;8.44;86.70;100093.41;5105697;28;10340;-69
2023/12/10 06:59:07;;;;;;;;;9.00;4.50;;;;;8.48;87.48;100113.44;5096864;28;10380;-69
2023/12/10 07:01:37;;;;;;;;;10.75;7.00;;;;;8.48;86.24;100099.22;5089136;28;10372;-70
2023/12/10 07:04:05;;;;;;;;;2.75;2.00;;;;;8.52;86.43;100109.34;5099946;28;10324;-70
2023/12/10 07:06:32;;;;;;;;;4.00;2.25;;;;;8.56;86.42;100107.91;5093817;28;10120;-70
2023/12/10 07:08:58;;;;;;;;;7.50;5.50;;;;;8.55;86.36;100122.38;5112817;28;10316;-70
2023/12/10 07:11:25;;;;;;;;;5.00;3.00;;;;;8.58;86.07;100121.13;5104485;28;10341;-69
2023/12/10 07:13:53;;;;;;;;;6.75;2.75;;;;;8.58;86.62;100129.16;5100853;28;10254;-70
2023/12/10 07:16:20;;;;;;;;;3.25;2.75;;;;;8.63;86.46;100119.50;5104197;28;10237;-70
2023/12/10 07:18:46;;;;;;;;;5.75;3.00;;;;;8.58;86.46;100135.34;5104712;28;10351;-70
2023/12/10 07:21:13;;;;;;;;;8.50;6.00;;;;;8.58;87.22;100138.03;5094166;28;11090;-68
2023/12/10 07:23:39;;;;;;;;;3.00;3.00;;;;;8.63;86.43;100137.47;5093736;28;10461;-69
2023/12/10 07:26:06;;;;;;;;;5.75;5.00;;;;;8.65;86.35;100152.31;5113059;28;10337;-70
2023/12/10 07:28:33;;;;;;;;;4.75;2.25;;;;;8.75;86.21;100168.06;5105779;28;11072;-70
2023/12/10 07:30:59;;;;;;;;;5.00;5.00;;;;;8.73;86.37;100174.66;5104031;27;10245;-68
2023/12/10 07:33:26;;;;;;;;;2.75;1.25;;;;;8.75;86.56;100172.59;5097361;27;10377;-69
2023/12/10 07:35:52;;;;;;;;;4.00;3.00;;;;;8.66;87.01;100180.78;5094488;28;10294;-70
2023/12/10 07:38:19;;;;;;;;;6.50;5.00;;;;;8.61;86.35;100171.69;5112095;28;10119;-70
2023/12/10 07:40:45;;;;;;;;;5.50;2.00;;;;;8.68;86.79;100194.03;5094329;28;10385;-69
2023/12/10 07:43:12;;;;;;;;;6.50;4.00;;;;;8.62;86.29;100195.63;5089509;28;10218;-69
2023/12/10 07:45:38;;;;;;;;;7.75;2.00;;;;;8.61;85.93;100201.22;5102610;28;10380;-70
2023/12/10 07:48:05;;;;;;;;;4.00;3.00;;;;;8.65;86.18;100205.16;5107242;28;10323;-70
2023/12/10 07:50:32;;;;;;;;;3.50;2.25;;;;;8.64;86.28;100222.28;5090628;28;10270;-69
2023/12/10 07:52:59;;;;;;;;;5.50;2.25;;;;;8.65;85.78;100235.50;5090641;28;10304;-68
2023/12/10 07:55:28;;;;;;;;;3.75;2.50;;;;;8.64;86.15;100233.03;5085052;28;10383;-69
2023/12/10 07:57:55;;;;;;;;;9.50;3.00;;;;;8.63;85.85;100242.09;5097848;28;10298;-69
2023/12/10 08:00:21;;;;;;;;;8.50;5.00;;;;;8.66;86.38;100239.00;5112361;28;10350;-69
2023/12/10 08:02:48;;;;;;;;;4.75;2.75;;;;;8.60;86.37;100255.91;5106135;28;10436;-67
2023/12/10 08:05:15;;;;;;;;;4.50;4.00;;;;;8.63;86.61;100255.50;5091755;28;11067;-68
2023/12/10 08:07:41;;;;;;;;;3.00;2.00;;;;;8.56;86.31;100268.03;5091609;28;10337;-69
2023/12/10 08:10:08;;;;;;;;;1.25;1.25;;;;;8.60;86.19;100248.69;5094816;28;10469;-69
2023/12/10 08:12:34;;;;;;;;;7.25;3.25;;;;;8.57;85.70;100261.66;5094036;28;10348;-68
2023/12/10 08:15:01;;;;;;;;;4.25;3.00;;;;;8.61;85.65;100252.19;5111900;28;10467;-70
2023/12/10 08:17:28;;;;;;;;;4.00;2.00;;;;;8.59;85.94;100262.28;5109815;28;10313;-69
2023/12/10 08:19:54;;;;;;;;;3.00;2.00;;;;;8.53;85.67;100263.88;5090124;28;10377;-68
2023/12/10 08:22:21;;;;;;;;;4.00;3.75;;;;;8.59;85.90;100265.81;5084351;28;10177;-69
2023/12/10 08:24:47;;;;;;;;;2.00;2.00;;;;;8.56;85.37;100279.59;5106724;28;10284;-69
2023/12/10 08:27:14;;;;;;;;;2.75;2.00;;;;;8.63;85.03;100269.75;5090572;28;10330;-69
2023/12/10 08:29:41;;;;;;;;;3.00;2.25;;;;;8.70;85.23;100298.47;5111285;28;10196;-68
2023/12/10 08:32:08;;;;;;;;;7.00;2.00;;;;;8.71;84.84;100294.75;5093390;28;10330;-69
2023/12/10 08:34:34;;;;;;;;;4.25;4.25;;;;;8.70;84.87;100307.34;5088349;28;10371;-69
2023/12/10 08:37:01;;;;;;;;;2.00;2.00;;;;;8.60;85.51;100310.38;5097620;28;10380;-68
2023/12/10 08:39:27;;;;;;;;;3.75;2.75;;;;;8.71;84.61;100308.16;5077606;28;10226;-69
2023/12/10 08:41:54;;;;;;;;;1.50;1.25;;;;;8.73;84.88;100312.34;5085652;28;10975;-69
2023/12/10 08:44:20;;;;;;;;;3.00;2.50;;;;;8.74;84.89;100335.44;5109619;28;10192;-70
2023/12/10 08:46:47;;;;;;;;;5.50;1.00;;;;;8.76;84.42;100316.50;5111563;28;10337;-68
2023/12/10 08:49:13;;;;;;;;;3.00;2.75;;;;;8.81;84.13;100343.56;5101083;28;10232;-68
2023/12/10 08:51:40;;;;;;;;;5.00;3.00;;;;;8.77;84.42;100328.88;5111413;27;11118;-69
2023/12/10 08:54:07;;;;;;;;;3.00;2.25;;;;;8.76;84.19;100338.78;5091849;28;10281;-69
2023/12/10 08:56:33;;;;;;;;;12.25;6.50;;;;;8.72;84.33;100334.84;5085642;28;10318;-69
2023/12/10 08:59:00;;;;;;;;;3.00;3.00;;;;;8.65;84.96;100336.63;5071008;28;10395;-68
2023/12/10 09:01:26;;;;;;;;;2.00;1.00;;;;;8.70;84.55;100344.91;5109262;28;10188;-70
2023/12/10 09:03:53;;;;;;;;;7.50;6.25;;;;;8.67;85.13;100334.59;5098263;28;10211;-69
2023/12/10 09:06:19;;;;;;;;;2.50;1.75;;;;;8.68;84.84;100349.66;5098532;27;10431;-68
2023/12/10 09:08:46;;;;;;;;;6.75;4.50;;;;;8.72;84.65;100353.63;5098752;27;10209;-68
2023/12/10 09:11:12;;;;;;;;;6.00;4.25;;;;;8.73;84.52;100352.59;5095770;27;10317;-68
2023/12/10 09:13:39;;;;;;;;;5.25;3.00;;;;;8.73;84.68;100359.81;5103109;28;10410;-69
2023/12/10 09:16:06;;;;;;;;;7.00;3.00;;;;;8.64;84.43;100365.31;5091626;28;10489;-70
2023/12/10 09:18:32;;;;;;;;;4.50;2.25;;;;;8.70;84.48;100371.75;5075116;28;10388;-69
2023/12/10 09:20:59;;;;;;;;;5.50;3.00;;;;;8.70;84.54;100373.59;5110813;28;10342;-70
2023/12/10 09:23:26;;;;;;;;;6.25;5.50;;;;;8.76;84.21;100380.91;5103590;28;10175;-70
2023/12/10 09:25:52;;;;;;;;;5.75;5.00;;;;;8.62;85.13;100380.75;5084294;28;10276;-69
2023/12/10 09:28:19;;;;;;;;;5.50;2.75;;;;;8.59;85.20;100385.72;5110411;28;10151;-69
2023/12/10 09:30:45;;;;;;;;;5.50;3.50;;;;;8.73;84.32;100397.38;5101058;28;10398;-69
2023/12/10 09:33:12;;;;;;;;;3.75;2.00;;;;;8.63;84.33;100393.16;5104545;28;10215;-70
2023/12/10 09:35:39;;;;;;;;;5.50;4.50;;;;;8.68;84.35;100384.53;5105169;28;10157;-68
2023/12/10 09:38:05;;;;;;;;;5.00;3.00;;;;;8.77;84.23;100394.09;5094774;27;10446;-69
2023/12/10 09:40:33;;;;;;;;;4.00;3.00;;;;;8.81;83.52;100389.19;5088311;27;10274;-70
2023/12/10 09:43:01;;;;;;;;;2.25;2.25;;;;;8.84;83.70;100402.22;5089614;27;10438;-69
2023/12/10 09:45:28;;;;;;;;;4.00;2.00;;;;;8.86;83.44;100403.66;5114051;27;10204;-70
2023/12/10 09:47:55;;;;;;;;;0.25;0.25;;;;;8.93;83.04;100395.69;5110636;27;10211;-69
2023/12/10 09:50:23;;;;;;;;;5.50;3.00;;;;;8.88;83.37;100404.31;5085608;27;10825;-70
2023/12/10 09:52:49;;;;;;;;;2.50;1.00;;;;;8.78;82.91;100411.03;5112441;28;10380;-70
2023/12/10 09:55:17;;;;;;;;;2.50;2.50;;;;;8.90;82.62;100420.22;5104944;27;11044;-69
2023/12/10 09:57:43;;;;;;;;;5.00;2.50;;;;;8.92;82.90;100415.50;5087791;27;10971;-69
2023/12/10 10:00:10;;;;;;;;;5.25;3.00;;;;;9.02;82.25;100410.63;5080876;27;10353;-70
2023/12/10 10:02:37;;;;;;;;;3.00;3.00;;;;;9.07;82.65;100408.16;5108104;27;10159;-70
2023/12/10 10:05:07;;;;;;;;;4.50;4.50;;;;;9.01;82.63;100414.34;5110827;27;10139;-69
2023/12/10 10:07:34;;;;;;;;;5.00;2.00;;;;;8.97;82.51;100410.38;5108473;27;10312;-69
2023/12/10 10:10:00;;;;;;;;;2.75;2.75;;;;;9.03;82.10;100381.91;5090625;27;10173;-70
2023/12/10 10:12:30;;;;;;;;;5.75;4.00;;;;;9.14;81.86;100392.94;5116129;27;10332;-70
2023/12/10 10:14:59;;;;;;;;;4.00;2.25;;;;;9.17;81.95;100405.16;5116107;27;10129;-70
2023/12/10 10:17:30;;;;;;;;;3.00;1.00;;;;;9.09;81.17;100405.31;5092569;27;10207;-70
2023/12/10 10:19:58;;;;;;;;;6.00;2.00;;;;;9.11;81.37;100416.66;5096817;27;10123;-69
2023/12/10 10:22:26;;;;;;;;;5.75;1.75;;;;;9.12;81.56;100419.19;5091413;27;11079;-69
2023/12/10 10:24:54;;;;;;;;;2.50;1.50;;;;;9.19;81.57;100415.69;5110213;27;10225;-70
2023/12/10 10:27:21;;;;;;;;;2.00;2.00;;;;;9.27;81.90;100426.28;5112195;27;10230;-69
2023/12/10 10:29:54;;;;;;;;;4.25;2.00;;;;;9.32;81.42;100421.19;5105742;28;10117;-70
2023/12/10 10:32:22;;;;;;;;;2.00;1.00;;;;;9.25;81.44;100422.97;5109664;28;10799;-69
2023/12/10 10:34:49;;;;;;;;;2.00;2.00;;;;;9.31;81.14;100412.28;5102857;28;10067;-69
2023/12/10 10:37:17;;;;;;;;;2.50;2.00;;;;;9.29;81.42;100427.75;5102996;28;10865;-68
2023/12/10 10:39:46;;;;;;;;;1.25;1.25;;;;;9.26;81.80;100441.56;5111897;28;11285;-70
2023/12/10 10:42:13;;;;;;;;;7.50;4.75;;;;;9.22;81.74;100423.38;5101576;28;10104;-70
2023/12/10 10:44:41;;;;;;;;;4.25;3.00;;;;;9.09;82.05;100426.78;5094209;28;10146;-70
2023/12/10 10:47:08;;;;;;;;;3.00;1.25;;;;;9.09;82.28;100430.31;5104316;28;10195;-71
2023/12/10 10:49:41;;;;;;;;;1.50;1.25;;;;;9.01;82.23;100424.25;5106713;28;10071;-69
2023/12/10 10:52:13;;;;;;;;;6.75;2.75;;;;;9.16;82.30;100428.50;5103098;28;10107;-69
2023/12/10 10:54:40;;;;;;;;;2.75;2.00;;;;;9.22;81.95;100418.81;5095253;28;10266;-70
2023/12/10 10:57:07;;;;;;;;;3.50;2.50;;;;;9.33;81.74;100422.84;5108085;28;10169;-69
2023/12/10 10:59:34;;;;;;;;;3.75;1.75;;;;;9.37;81.62;100421.41;5112345;28;9989;-70
2023/12/10 11:02:04;;;;;;;;;2.50;2.50;;;;;9.37;81.54;100405.31;5097846;28;10022;-70
2023/12/10 11:04:37;;;;;;;;;6.25;2.75;;;;;9.32;82.08;100405.06;5108954;27;10151;-69
2023/12/10 11:07:05;;;;;;;;;1.00;1.00;;;;;9.39;81.49;100406.75;5089251;28;10136;-70
2023/12/10 11:09:56;;;;;;;;;3.00;2.00;;;;;9.40;81.41;100408.41;5102690;27;9920;-70
2023/12/10 11:12:44;;;;;;;;;2.75;1.75;;;;;9.45;81.11;100407.00;5116037;27;10080;-69
2023/12/10 11:15:17;;;;;;;;;1.00;1.00;;;;;9.41;80.77;100414.63;5119296;27;9975;-70
2023/12/10 11:18:02;;;;;;;;;5.00;2.00;;;;;9.43;80.81;100414.41;5120466;27;9965;-69
2023/12/10 11:20:33;;;;;;;;;3.50;2.00;;;;;9.55;80.16;100410.16;5120489;27;9906;-70
2023/12/10 11:23:05;;;;;;;;;5.50;2.00;;;;;9.44;80.51;100413.38;5083036;27;10815;-69
2023/12/10 11:25:32;;;;;;;;;4.50;2.00;;;;;9.39;80.54;100422.84;5102603;27;10072;-70
2023/12/10 11:28:01;;;;;;;;;2.00;2.00;;;;;9.41;80.98;100410.06;5096406;27;10558;-69
2023/12/10 11:30:28;;;;;;;;;3.00;2.50;;;;;9.44;80.62;100403.50;5115038;27;10036;-69
2023/12/10 11:32:55;;;;;;;;;1.50;1.50;;;;;9.33;80.77;100412.09;5123596;27;10015;-69
2023/12/10 11:35:21;;;;;;;;;3.75;2.00;;;;;9.31;81.59;100401.53;5103968;27;10139;-69